KGYR/GYR METAR and TAF weather

Enter ICAO airport designator
Station Type Date Time Source
KGYR METAR 2019/07/18 03:47 UTC NOAA

KGYR 180347Z 21007KT 10SM SCT180 BKN250 36/16 A2983 RMK LAST


Station Type Date Time Source
KGYR Decoded METAR 2019/07/18 03:47 UTC NOAA

Goodyear Municipal, AZ, United States (KGYR) 33-25N 112-23W
Jul 17, 2019 - 11:47 PM EDT / 2019.07.18 0347 UTC
Wind: from the SSW (210 degrees) at 8 MPH (7 KT):0
Visibility: 10 mile(s):0
Sky conditions: mostly cloudy
Temperature: 96 F (36 C)
Heat index: 95.9 F (35.5 C):1
Dew Point: 60 F (16 C)
Relative Humidity: 30%
Pressure (altimeter): 29.83 in. Hg (1010 hPa)
ob: KGYR 180347Z 21007KT 10SM SCT180 BKN250 36/16 A2983 RMK LAST
cycle: 4

Station Type Date Time Source
KGYR TAF UTC NOAA

Error!

Example: see airport list